Millennium Dawn — WDA7527 — position and weather

sailwx.info

Track history (hours):
 
Tides and Currents Weather Stations Pressure Air Temp Water Temp Dewpoint Dewpoint Depression Visibility Wind Speed Wind Dir Waves Ship Positions

Millennium Dawn

Owner: Harley Marine Services, Inc, Seattle, WA. More information available from US FCC via Universal Licensing System and Coast Guard Vessel Documentation Center.

Last reported at 2018-Jun-25 00:30 UTC. Time now 2018-Jun-25 00:43 UTC.
Position N 48°31' W 122°36'.

Length 30 m; draft 5.2 m.

Type: Tug. MMSI: 366844270.

Date/timePositionNaut miles runAvg speedWind from/ knotsBaromVisibWave heightAir tempDewpointWater temp
2018-Jun-25 00:30N 48°31' W 122°36'0 0.0
2018-Jun-25 00:00N 48°31' W 122°36'0 0.0
2018-Jun-24 23:30N 48°31' W 122°36'0 0.0
2018-Jun-24 23:00N 48°31' W 122°36'0 0.0
2018-Jun-24 22:30N 48°31' W 122°36'0 0.0
2018-Jun-24 22:00N 48°31' W 122°36'0 0.0
2018-Jun-24 21:30N 48°31' W 122°36'0 0.2
2018-Jun-24 21:00N 48°31' W 122°36'3 5.9
2018-Jun-24 20:30N 48°34' W 122°36'0 0.0
2018-Jun-24 20:00N 48°34' W 122°36'0 0.0
2018-Jun-24 19:30N 48°34' W 122°36'1 1.3
2018-Jun-24 19:00N 48°35' W 122°36'1 1.2
2018-Jun-24 18:30N 48°36' W 122°36'1 1.0
2018-Jun-24 18:00N 48°36' W 122°37'3 5.2
2018-Jun-24 17:30N 48°38' W 122°39'5 9.8
2018-Jun-24 17:00N 48°42' W 122°43'3 1.0
2018-Jun-24 14:09N 48°45' W 122°45'2 9.7
2018-Jun-24 13:57N 48°43' W 122°44'4 9.4
2018-Jun-24 13:30N 48°40' W 122°40'4 8.0
2018-Jun-24 13:00N 48°37' W 122°35'1 2.0
2018-Jun-24 12:31N 48°37' W 122°34'4 8.3
2018-Jun-24 12:00N 48°33' W 122°34'1 2.4
2018-Jun-24 11:30N 48°32' W 122°35'2 3.5
2018-Jun-24 10:59N 48°33' W 122°35'2 4.9
2018-Jun-24 10:30N 48°31' W 122°36'0 0.0
2018-Jun-24 10:00N 48°31' W 122°36'0 0.1
2018-Jun-24 09:30N 48°31' W 122°37'0 0.1
2018-Jun-24 09:00N 48°31' W 122°36'0 0.1
2018-Jun-24 08:30N 48°31' W 122°37'0 0.0
2018-Jun-24 08:00N 48°31' W 122°37'0 0.0
2018-Jun-24 07:30N 48°31' W 122°37'0 0.0
2018-Jun-24 07:00N 48°31' W 122°37'0 0.0
2018-Jun-24 06:30N 48°31' W 122°37'0 0.1
2018-Jun-24 05:58N 48°31' W 122°36'0 0.0
2018-Jun-24 05:30N 48°31' W 122°36'0 0.1
2018-Jun-24 05:00N 48°31' W 122°37'0 0.1
2018-Jun-24 04:30N 48°31' W 122°36'0 0.1
2018-Jun-24 04:00N 48°31' W 122°37'0 0.0
2018-Jun-24 03:30N 48°31' W 122°37'0 0.0
2018-Jun-24 03:00N 48°31' W 122°37'0 0.0
2018-Jun-24 02:30N 48°31' W 122°37'0 0.1
2018-Jun-24 02:00N 48°31' W 122°36'0 0.0
2018-Jun-24 01:30N 48°31' W 122°36'0 0.1
2018-Jun-24 01:00N 48°31' W 122°37'0 0.0
2018-Jun-24 00:30N 48°31' W 122°37'0 0.1
2018-Jun-24 00:00N 48°31' W 122°36'0 0.0
2018-Jun-23 23:29N 48°31' W 122°36'0 0.1
2018-Jun-23 23:00N 48°31' W 122°37'0 0.0
2018-Jun-23 22:30N 48°31' W 122°37'0 0.0
2018-Jun-23 22:00N 48°31' W 122°37'0 0.1
2018-Jun-23 21:30N 48°31' W 122°36'0 0.0
2018-Jun-23 21:00N 48°31' W 122°36'0 0.0
2018-Jun-23 20:30N 48°31' W 122°36'0 0.0
2018-Jun-23 19:58N 48°31' W 122°36'0 0.1
2018-Jun-23 19:30N 48°31' W 122°37'0 0.1
2018-Jun-23 19:00N 48°31' W 122°36'0 0.1
2018-Jun-23 18:30N 48°31' W 122°37'0 0.1
2018-Jun-23 18:00N 48°31' W 122°36'0 0.0
2018-Jun-23 17:30N 48°31' W 122°36'0 0.0
2018-Jun-23 17:00N 48°31' W 122°36'0 0.1
2018-Jun-23 16:30N 48°31' W 122°37'0 0.1
2018-Jun-23 16:00N 48°31' W 122°36'0 0.0
2018-Jun-23 15:30N 48°31' W 122°36'0 0.0
2018-Jun-23 15:00N 48°31' W 122°36'0 0.0
2018-Jun-23 14:30N 48°31' W 122°36'0 0.1
2018-Jun-23 13:57N 48°31' W 122°37'0 0.0
2018-Jun-23 13:30N 48°31' W 122°37'0 0.0
2018-Jun-23 13:00N 48°31' W 122°37'0 0.1
2018-Jun-23 12:30N 48°31' W 122°36'0 0.1
2018-Jun-23 12:00N 48°31' W 122°37'0 0.0
2018-Jun-23 11:30N 48°31' W 122°37'0 0.0
2018-Jun-23 11:00N 48°31' W 122°37'0 0.0
2018-Jun-23 10:28N 48°31' W 122°37'0 0.1
2018-Jun-23 10:00N 48°31' W 122°36'0 0.1
2018-Jun-23 09:29N 48°31' W 122°37'0 0.1
2018-Jun-23 09:00N 48°31' W 122°36'0 0.0
2018-Jun-23 08:30N 48°31' W 122°36'0 0.0
2018-Jun-23 08:00N 48°31' W 122°36'0 0.0
2018-Jun-23 07:30N 48°31' W 122°36'0 0.0
2018-Jun-23 06:59N 48°31' W 122°36'0 0.0
2018-Jun-23 06:30N 48°31' W 122°36'0 0.1
2018-Jun-23 06:00N 48°31' W 122°37'0 0.0
2018-Jun-23 05:30N 48°31' W 122°37'0 0.1
2018-Jun-23 05:00N 48°31' W 122°36'0 0.0
2018-Jun-23 04:30N 48°31' W 122°36'0 0.0
2018-Jun-23 03:59N 48°31' W 122°36'0 0.0
2018-Jun-23 03:30N 48°31' W 122°36'0 0.0
2018-Jun-23 03:00N 48°31' W 122°36'0 0.0
2018-Jun-23 02:30N 48°31' W 122°36'0 0.0
2018-Jun-23 02:00N 48°31' W 122°36'0 0.0
2018-Jun-23 01:30N 48°31' W 122°36'0 0.1
2018-Jun-23 01:00N 48°31' W 122°37'0 0.0
2018-Jun-23 00:30N 48°31' W 122°37'0 0.1
2018-Jun-23 00:00N 48°31' W 122°36'0 0.1
2018-Jun-22 23:30N 48°31' W 122°37'0 0.1
2018-Jun-22 23:00N 48°31' W 122°36'0 0.5
2018-Jun-22 22:31N 48°31' W 122°37'4 7.0
2018-Jun-22 22:00N 48°35' W 122°35'3 5.2
2018-Jun-22 21:30N 48°37' W 122°34'1 1.4
2018-Jun-22 20:58N 48°37' W 122°35'2 5.2
2018-Jun-22 20:30N 48°38' W 122°39'3 6.3
2018-Jun-22 20:01N 48°39' W 122°43'510.3
2018-Jun-22 19:30N 48°34' W 122°45'610.8
2018-Jun-22 18:57N 48°28' W 122°45'6 9.2
2018-Jun-22 18:19N 48°23' W 122°49'25 3.8
2018-Jun-22 11:35N 47°60' W 122°36'413.6
2018-Jun-22 11:18N 47°57' W 122°32'412.3
2018-Jun-22 11:00N 47°54' W 122°28'612.3
2018-Jun-22 10:30N 47°48' W 122°26'611.9
2018-Jun-22 10:00N 47°42' W 122°26'510.7
2018-Jun-22 09:30N 47°37' W 122°24'4 7.2
2018-Jun-22 09:00N 47°34' W 122°21'0 0.0
2018-Jun-22 08:30N 47°34' W 122°21'0 0.0
2018-Jun-22 08:00N 47°34' W 122°21'0 0.0
2018-Jun-22 07:30N 47°34' W 122°21'0 0.0
2018-Jun-22 07:00N 47°34' W 122°21'0 0.0
2018-Jun-22 06:30N 47°34' W 122°21'0 0.0
2018-Jun-22 06:00N 47°34' W 122°21'0 0.0
2018-Jun-22 05:30N 47°34' W 122°21'0 0.0
2018-Jun-22 05:00N 47°34' W 122°21'0 0.0
2018-Jun-22 04:30N 47°34' W 122°21'0 0.0
2018-Jun-22 04:00N 47°34' W 122°21'1 1.1
2018-Jun-22 03:30N 47°35' W 122°21'4 7.7
2018-Jun-22 03:00N 47°34' W 122°26'611.0
2018-Jun-22 02:30N 47°29' W 122°24'611.4
2018-Jun-22 02:00N 47°24' W 122°21'510.9
2018-Jun-22 01:31N 47°20' W 122°26'3 6.2
2018-Jun-22 01:00N 47°17' W 122°25'1 2.9
2018-Jun-22 00:30N 47°16' W 122°23'1 2.4
2018-Jun-22 00:00N 47°16' W 122°24'0 0.8
2018-Jun-21 23:30N 47°16' W 122°24'1 1.2
2018-Jun-21 22:59N 47°16' W 122°23'0 0.7
2018-Jun-21 22:27N 47°16' W 122°24'0 0.5
2018-Jun-21 22:00N 47°16' W 122°23'4 7.1
2018-Jun-21 21:30N 47°18' W 122°27'5 9.7
2018-Jun-21 21:00N 47°22' W 122°23'5 9.6
2018-Jun-21 20:30N 47°27' W 122°25'611.3
2018-Jun-21 20:00N 47°32' W 122°27'5 9.4
2018-Jun-21 19:30N 47°36' W 122°22'2 3.6
2018-Jun-21 19:00N 47°34' W 122°21'0 0.0
2018-Jun-21 18:30N 47°34' W 122°21'0 0.0
2018-Jun-21 18:00N 47°34' W 122°21'0 0.0
2018-Jun-21 17:30N 47°34' W 122°21'1 2.0
2018-Jun-21 17:00N 47°35' W 122°21'1 1.1
2018-Jun-21 16:30N 47°36' W 122°21'0 1.0
2018-Jun-21 16:00N 47°35' W 122°21'1 2.2
2018-Jun-21 15:30N 47°34' W 122°21'0 0.0
2018-Jun-21 15:00N 47°34' W 122°21'0 0.0
2018-Jun-21 14:30N 47°34' W 122°21'0 0.0
2018-Jun-21 14:00N 47°34' W 122°21'0 0.0
2018-Jun-21 13:30N 47°34' W 122°21'0 1.0
2018-Jun-21 13:00N 47°35' W 122°21'0 0.5
2018-Jun-21 12:30N 47°35' W 122°21'1 2.9
2018-Jun-21 12:00N 47°37' W 122°21'0 0.9
2018-Jun-21 11:30N 47°37' W 122°22'0 0.4
2018-Jun-21 11:00N 47°37' W 122°21'2 4.7
2018-Jun-21 10:30N 47°34' W 122°21'0 0.0
2018-Jun-21 10:00N 47°34' W 122°21'0 0.0
2018-Jun-21 09:30N 47°34' W 122°21'0 0.0
2018-Jun-21 09:00N 47°34' W 122°21'0 0.0
2018-Jun-21 08:30N 47°34' W 122°21'0 0.0
2018-Jun-21 08:00N 47°34' W 122°21'0 0.0
2018-Jun-21 07:30N 47°34' W 122°21'0 0.0
2018-Jun-21 07:00N 47°34' W 122°21'0 0.0
2018-Jun-21 06:30N 47°34' W 122°21'0 0.0
2018-Jun-21 06:00N 47°34' W 122°21'0 0.0
2018-Jun-21 05:30N 47°34' W 122°21'0 0.0
2018-Jun-21 05:00N 47°34' W 122°21'0 0.0
2018-Jun-21 04:30N 47°34' W 122°21'0 0.6
2018-Jun-21 04:01N 47°35' W 122°21'0 0.1
2018-Jun-21 03:30N 47°35' W 122°21'1 2.1
2018-Jun-21 03:00N 47°36' W 122°21'1 1.6
2018-Jun-21 02:30N 47°36' W 122°21'2 3.6
2018-Jun-21 02:00N 47°35' W 122°21'0 0.7
2018-Jun-21 01:30N 47°34' W 122°21'0 0.0
2018-Jun-21 01:00N 47°34' W 122°21'0 0.0
2018-Jun-21 00:30N 47°34' W 122°21'0 0.0
2018-Jun-21 00:00N 47°34' W 122°21'0 0.0
2018-Jun-20 23:30N 47°34' W 122°21'0 0.0
2018-Jun-20 22:59N 47°34' W 122°21'0 0.0
2018-Jun-20 22:30N 47°34' W 122°21'0 0.0
2018-Jun-20 22:00N 47°34' W 122°21'0 0.0
2018-Jun-20 21:30N 47°34' W 122°21'0 0.0
2018-Jun-20 21:00N 47°34' W 122°21'0 0.0
2018-Jun-20 20:30N 47°34' W 122°21'0 0.0
2018-Jun-20 20:00N 47°34' W 122°21'0 0.0
2018-Jun-20 19:30N 47°34' W 122°21'0 0.0
2018-Jun-20 19:00N 47°34' W 122°21'0 0.0
2018-Jun-20 18:30N 47°34' W 122°21'0 0.0
2018-Jun-20 17:58N 47°34' W 122°21'0 0.0
2018-Jun-20 17:30N 47°34' W 122°21'0 0.0
2018-Jun-20 17:00N 47°34' W 122°21'0 0.0
2018-Jun-20 16:30N 47°34' W 122°21'0 0.0
2018-Jun-20 16:00N 47°34' W 122°21'3 6.4
2018-Jun-20 15:30N 47°35' W 122°25'510.3
2018-Jun-20 15:00N 47°30' W 122°24'611.3
2018-Jun-20 14:30N 47°24' W 122°22'5 9.7
2018-Jun-20 14:00N 47°20' W 122°25'4 8.0
2018-Jun-20 13:30N 47°16' W 122°24'0 0.0
2018-Jun-20 12:58N 47°16' W 122°24'2 5.1
2018-Jun-20 12:31N 47°18' W 122°27'2 3.5
2018-Jun-20 12:00N 47°17' W 122°24'0 0.9
2018-Jun-20 11:30N 47°16' W 122°24'0 0.0
2018-Jun-20 10:59N 47°16' W 122°24'0 0.0
2018-Jun-20 10:26N 47°16' W 122°24'0 0.0
2018-Jun-20 10:00N 47°16' W 122°24'0 0.0
2018-Jun-20 09:30N 47°16' W 122°24'0 0.0
2018-Jun-20 09:00N 47°16' W 122°24'0 0.0
2018-Jun-20 08:30N 47°16' W 122°24'0 0.0
2018-Jun-20 07:59N 47°16' W 122°24'0 0.0
2018-Jun-20 06:14N 47°16' W 122°24'0 0.0
2018-Jun-20 04:20N 47°16' W 122°24'0 0.0
2018-Jun-20 03:56N 47°16' W 122°24'0 0.0
2018-Jun-20 03:30N 47°16' W 122°24'0 0.0
2018-Jun-20 03:00N 47°16' W 122°24'0 0.0
2018-Jun-20 02:30N 47°16' W 122°24'0 0.3
2018-Jun-20 02:00N 47°16' W 122°24'4 8.7
2018-Jun-20 01:30N 47°20' W 122°27'5 9.7
2018-Jun-20 01:00N 47°24' W 122°23'611.6
2018-Jun-20 00:30N 47°30' W 122°26'510.3
2018-Jun-20 00:00N 47°35' W 122°25'3 6.4
2018-Jun-19 23:30N 47°34' W 122°21'0 0.0
2018-Jun-19 23:00N 47°34' W 122°21'0 0.0
2018-Jun-19 22:30N 47°34' W 122°21'0 0.0
2018-Jun-19 22:00N 47°34' W 122°21'0 0.0
2018-Jun-19 21:30N 47°34' W 122°21'0 0.0
2018-Jun-19 21:00N 47°34' W 122°21'0 0.0
2018-Jun-19 20:30N 47°34' W 122°21'0 0.0
2018-Jun-19 20:00N 47°34' W 122°21'1 1.8
2018-Jun-19 19:30N 47°35' W 122°21'0 0.0
2018-Jun-19 19:00N 47°35' W 122°21'0 0.0
2018-Jun-19 18:30N 47°35' W 122°21'0 0.0
2018-Jun-19 18:00N 47°35' W 122°21'0 0.0
2018-Jun-19 17:30N 47°35' W 122°21'1 1.8
2018-Jun-19 17:00N 47°34' W 122°21'0 0.0
2018-Jun-19 16:30N 47°34' W 122°21'0 0.0
2018-Jun-19 16:00N 47°34' W 122°21'0 0.0
2018-Jun-19 15:30N 47°34' W 122°21'0 0.0
2018-Jun-19 15:00N 47°34' W 122°21'0 0.0
2018-Jun-19 14:30N 47°34' W 122°21'0 0.0
2018-Jun-19 14:00N 47°34' W 122°21'0 0.0
2018-Jun-19 13:30N 47°34' W 122°21'0 0.0
2018-Jun-19 13:00N 47°34' W 122°21'0 0.0
2018-Jun-19 12:30N 47°34' W 122°21'0 0.0
2018-Jun-19 12:00N 47°34' W 122°21'0 0.0
2018-Jun-19 11:30N 47°34' W 122°21'0 0.0
2018-Jun-19 11:00N 47°34' W 122°21'0 0.0
2018-Jun-19 10:30N 47°34' W 122°21'0 0.0
2018-Jun-19 10:00N 47°34' W 122°21'0 0.0
2018-Jun-19 09:30N 47°34' W 122°21'0 0.0
2018-Jun-19 09:00N 47°34' W 122°21'0 0.0
2018-Jun-19 08:30N 47°34' W 122°21'0 0.0
2018-Jun-19 08:00N 47°34' W 122°21'0 0.3
2018-Jun-19 07:31N 47°35' W 122°21'0 0.2
2018-Jun-19 07:00N 47°34' W 122°21'0 0.1
2018-Jun-19 06:30N 47°34' W 122°21'0 0.0
2018-Jun-19 06:00N 47°34' W 122°21'0 0.0
2018-Jun-19 05:30N 47°34' W 122°21'0 0.0
2018-Jun-19 05:00N 47°34' W 122°21'0 0.0
2018-Jun-19 04:30N 47°34' W 122°21'0 0.0
2018-Jun-19 04:00N 47°34' W 122°21'0 0.0
2018-Jun-19 03:30N 47°34' W 122°21'0 0.0
2018-Jun-19 03:00N 47°34' W 122°21'0 0.0
2018-Jun-19 02:30N 47°34' W 122°21'0 0.0
2018-Jun-19 02:00N 47°34' W 122°21'0 0.0
2018-Jun-19 01:30N 47°34' W 122°21'0 0.0
2018-Jun-19 01:00N 47°34' W 122°21'0 0.0
2018-Jun-19 00:30N 47°34' W 122°21'0 0.0
2018-Jun-19 00:00N 47°34' W 122°21'0 0.0
2018-Jun-18 23:29N 47°34' W 122°21'1 1.3
2018-Jun-18 23:00N 47°35' W 122°21'4 7.3
2018-Jun-18 22:30N 47°34' W 122°26'611.6
2018-Jun-18 22:00N 47°29' W 122°24'611.8
2018-Jun-18 21:30N 47°23' W 122°21'611.8
2018-Jun-18 21:00N 47°19' W 122°27'3 3.5
2018-Jun-18 20:03N 47°16' W 122°24'0 0.1
2018-Jun-18 19:58N 47°16' W 122°24'0 0.0
2018-Jun-18 19:27N 47°16' W 122°24'0 0.0
2018-Jun-18 19:00N 47°16' W 122°24'0 0.0
2018-Jun-18 18:17N 47°16' W 122°24'0 0.0
2018-Jun-18 17:50N 47°16' W 122°24'0 0.0
2018-Jun-18 17:28N 47°16' W 122°24'0 0.0
2018-Jun-18 17:00N 47°16' W 122°24'0 0.0
2018-Jun-18 16:28N 47°16' W 122°24'0 0.0
2018-Jun-18 16:00N 47°16' W 122°24'0 0.0
2018-Jun-18 15:29N 47°16' W 122°24'0 0.0
2018-Jun-18 15:00N 47°16' W 122°24'0 0.0
2018-Jun-18 14:24N 47°16' W 122°24'0 0.0
2018-Jun-18 14:00N 47°16' W 122°24'0 0.0
2018-Jun-18 13:29N 47°16' W 122°24'0 0.0
2018-Jun-18 13:00N 47°16' W 122°24'0 0.0
2018-Jun-18 12:30N 47°16' W 122°24'0 0.0
2018-Jun-18 11:56N 47°16' W 122°24'0 0.0
2018-Jun-18 11:25N 47°16' W 122°24'0 0.0
2018-Jun-18 11:00N 47°16' W 122°24'0 0.0
2018-Jun-18 10:30N 47°16' W 122°24'0 0.0
2018-Jun-18 10:00N 47°16' W 122°24'0 0.0
2018-Jun-18 09:30N 47°16' W 122°24'0 0.0
2018-Jun-18 08:53N 47°16' W 122°24'0 0.0
2018-Jun-18 08:30N 47°16' W 122°24'0 0.0
2018-Jun-18 08:00N 47°16' W 122°24'0 0.0
2018-Jun-18 07:28N 47°16' W 122°24'0 0.0
2018-Jun-18 06:58N 47°16' W 122°24'0 0.0
2018-Jun-18 06:30N 47°16' W 122°24'0 0.0
2018-Jun-18 06:00N 47°16' W 122°24'0 0.0
2018-Jun-18 05:30N 47°16' W 122°24'0 0.0
2018-Jun-18 05:00N 47°16' W 122°24'0 0.0
2018-Jun-18 04:28N 47°16' W 122°24'0 0.0
2018-Jun-18 04:00N 47°16' W 122°24'0 0.0
2018-Jun-18 03:28N 47°16' W 122°24'0 0.0
2018-Jun-18 02:53N 47°16' W 122°24'0 1.2
2018-Jun-18 02:30N 47°16' W 122°24'1 1.1
2018-Jun-18 02:00N 47°16' W 122°24'1 1.2
2018-Jun-18 01:30N 47°16' W 122°23'1 2.6
2018-Jun-18 01:00N 47°17' W 122°25'1 2.6
2018-Jun-18 00:30N 47°16' W 122°23'0 0.2
2018-Jun-17 23:15N 47°16' W 122°23'0 0.0
2018-Jun-17 22:59N 47°16' W 122°23'2 3.3
2018-Jun-17 22:29N 47°17' W 122°25'4 8.6
2018-Jun-17 22:00N 47°21' W 122°26'5 9.4
2018-Jun-17 21:30N 47°25' W 122°24'611.7
2018-Jun-17 21:00N 47°31' W 122°26'510.1
2018-Jun-17 20:30N 47°36' W 122°24'3 5.1
2018-Jun-17 19:59N 47°34' W 122°21'0 0.0
2018-Jun-17 19:30N 47°34' W 122°21'0 0.0
2018-Jun-17 18:59N 47°34' W 122°21'0 0.0
2018-Jun-17 18:30N 47°34' W 122°21'0 0.0
2018-Jun-17 18:00N 47°34' W 122°21'0 0.0
2018-Jun-17 17:30N 47°34' W 122°21'0 0.0
2018-Jun-17 17:00N 47°34' W 122°21'0 0.0
2018-Jun-17 16:30N 47°34' W 122°21'0 0.0
2018-Jun-17 16:00N 47°34' W 122°21'0 0.0
2018-Jun-17 15:30N 47°34' W 122°21'0 0.0
2018-Jun-17 15:00N 47°34' W 122°21'0 0.0
2018-Jun-17 14:30N 47°34' W 122°21'0 0.0
2018-Jun-17 14:00N 47°34' W 122°21'0 0.0
2018-Jun-17 13:30N 47°34' W 122°21'1 1.6
2018-Jun-17 13:00N 47°35' W 122°21'0 0.6
2018-Jun-17 12:31N 47°35' W 122°21'0 0.1
2018-Jun-17 12:00N 47°35' W 122°21'0 0.8
2018-Jun-17 11:30N 47°34' W 122°21'0 0.0
2018-Jun-17 11:00N 47°34' W 122°21'0 0.0
2018-Jun-17 10:30N 47°34' W 122°21'0 0.1
2018-Jun-17 10:00N 47°34' W 122°21'0 0.1
2018-Jun-17 09:30N 47°34' W 122°21'0 0.0
2018-Jun-17 09:00N 47°34' W 122°21'0 0.0
2018-Jun-17 08:30N 47°34' W 122°21'0 0.0
2018-Jun-17 08:00N 47°34' W 122°21'0 0.0
2018-Jun-17 07:30N 47°34' W 122°21'0 0.0
2018-Jun-17 07:00N 47°34' W 122°21'0 0.0
2018-Jun-17 06:30N 47°34' W 122°21'0 0.0
2018-Jun-17 06:00N 47°34' W 122°21'0 0.0
2018-Jun-17 05:30N 47°34' W 122°21'0 0.0
2018-Jun-17 05:00N 47°34' W 122°21'0 0.0
2018-Jun-17 04:29N 47°34' W 122°21'0 0.0
2018-Jun-17 04:00N 47°34' W 122°21'0 0.0
2018-Jun-17 03:30N 47°34' W 122°21'0 0.0
2018-Jun-17 03:00N 47°34' W 122°21'0 0.0
2018-Jun-17 02:30N 47°34' W 122°21'0 0.0
2018-Jun-17 02:00N 47°34' W 122°21'0 0.0
2018-Jun-17 01:30N 47°34' W 122°21'0 0.0
2018-Jun-17 01:00N 47°34' W 122°21'0 0.0
2018-Jun-17 00:30N 47°34' W 122°21'0 0.0
2018-Jun-17 00:00N 47°34' W 122°21'0 0.0
2018-Jun-16 23:30N 47°34' W 122°21'0 0.0
2018-Jun-16 23:00N 47°34' W 122°21'0 0.0
2018-Jun-16 22:30N 47°34' W 122°21'0 0.0
2018-Jun-16 22:00N 47°34' W 122°21'0 0.0
2018-Jun-16 21:30N 47°34' W 122°21'0 0.0
2018-Jun-16 21:00N 47°34' W 122°21'2 3.1
2018-Jun-16 20:30N 47°36' W 122°22'4 8.7
2018-Jun-16 20:00N 47°32' W 122°25'611.7
2018-Jun-16 19:30N 47°26' W 122°23'510.0
2018-Jun-16 19:00N 47°21' W 122°23'5 9.3
2018-Jun-16 18:30N 47°17' W 122°25'1 2.4
2018-Jun-16 18:00N 47°16' W 122°24'0 0.0
2018-Jun-16 17:29N 47°16' W 122°24'0 0.0
2018-Jun-16 17:00N 47°16' W 122°24'0 0.0
2018-Jun-16 16:28N 47°16' W 122°24'0 0.0
2018-Jun-16 14:34N 47°16' W 122°24'0 0.0
2018-Jun-16 14:29N 47°16' W 122°24'0 0.0
2018-Jun-16 13:58N 47°16' W 122°24'0 0.0
2018-Jun-16 13:30N 47°16' W 122°24'1 1.4
2018-Jun-16 13:00N 47°16' W 122°23'1 1.4
2018-Jun-16 12:27N 47°16' W 122°24'1 3.0
2018-Jun-16 12:00N 47°17' W 122°26'1 2.1
2018-Jun-16 11:30N 47°18' W 122°27'2 4.1
2018-Jun-16 11:00N 47°16' W 122°24'0 0.7
2018-Jun-16 10:27N 47°16' W 122°24'0 0.0
2018-Jun-16 10:00N 47°16' W 122°24'0 0.0
2018-Jun-16 09:29N 47°16' W 122°24'0 0.0
2018-Jun-16 08:59N 47°16' W 122°24'0 0.0
2018-Jun-16 08:30N 47°16' W 122°24'0 0.0
2018-Jun-16 07:54N 47°16' W 122°24'0 0.0
2018-Jun-16 07:29N 47°16' W 122°24'0 0.0
2018-Jun-16 03:49N 47°16' W 122°24'0 0.0
2018-Jun-16 03:30N 47°16' W 122°24'0 0.0
2018-Jun-16 02:45N 47°16' W 122°24'0 0.0
2018-Jun-16 02:29N 47°16' W 122°24'0 0.0
2018-Jun-16 01:49N 47°16' W 122°24'2 6.0
2018-Jun-16 01:30N 47°17' W 122°26'5 9.2
2018-Jun-16 01:00N 47°22' W 122°24'5 9.6
2018-Jun-16 00:30N 47°26' W 122°24'612.2
2018-Jun-16 00:00N 47°32' W 122°27'5 9.9
2018-Jun-15 23:30N 47°36' W 122°22'2 3.1
2018-Jun-15 23:00N 47°34' W 122°21'0 0.0
2018-Jun-15 22:30N 47°34' W 122°21'0 0.0
2018-Jun-15 22:00N 47°34' W 122°21'0 0.0
2018-Jun-15 21:30N 47°34' W 122°21'0 0.0
2018-Jun-15 21:00N 47°34' W 122°21'0 0.0
2018-Jun-15 20:30N 47°34' W 122°21'0 0.0
2018-Jun-15 20:00N 47°34' W 122°21'0 0.0
2018-Jun-15 19:30N 47°34' W 122°21'0 0.0
2018-Jun-15 19:00N 47°34' W 122°21'0 0.0
2018-Jun-15 18:30N 47°34' W 122°21'0 0.0
2018-Jun-15 18:00N 47°34' W 122°21'0 0.0
2018-Jun-15 17:30N 47°34' W 122°21'0 0.0
2018-Jun-15 17:00N 47°34' W 122°21'0 0.0
2018-Jun-15 16:30N 47°34' W 122°21'0 0.0
2018-Jun-15 16:00N 47°34' W 122°21'0 0.0
2018-Jun-15 15:30N 47°34' W 122°21'1 1.0
2018-Jun-15 15:00N 47°35' W 122°21'3 6.4
2018-Jun-15 14:30N 47°38' W 122°23'0 0.2
2018-Jun-15 13:59N 47°38' W 122°23'2 5.2
2018-Jun-15 13:30N 47°36' W 122°21'1 2.5
2018-Jun-15 13:00N 47°34' W 122°21'0 0.0
2018-Jun-15 12:30N 47°34' W 122°21'0 0.0
2018-Jun-15 12:00N 47°34' W 122°21'0 0.0
2018-Jun-15 11:30N 47°34' W 122°21'0 0.0
2018-Jun-15 10:59N 47°34' W 122°21'0 0.2
2018-Jun-15 10:30N 47°34' W 122°21'0 0.9
2018-Jun-15 10:00N 47°35' W 122°21'1 2.9
2018-Jun-15 09:31N 47°36' W 122°21'2 3.9
2018-Jun-15 09:00N 47°34' W 122°21'0 0.0
2018-Jun-15 08:30N 47°34' W 122°21'0 0.0
2018-Jun-15 08:00N 47°34' W 122°21'0 0.0
2018-Jun-15 07:30N 47°34' W 122°21'0 0.0
2018-Jun-15 07:00N 47°34' W 122°21'0 0.0
2018-Jun-15 06:30N 47°34' W 122°21'0 0.0
2018-Jun-15 06:00N 47°34' W 122°21'0 0.0
2018-Jun-15 05:30N 47°34' W 122°21'0 0.0
2018-Jun-15 05:00N 47°34' W 122°21'0 0.0
2018-Jun-15 04:30N 47°34' W 122°21'1 1.1
2018-Jun-15 04:00N 47°35' W 122°21'0 0.4
2018-Jun-15 03:30N 47°35' W 122°21'0 0.1
2018-Jun-15 03:00N 47°35' W 122°21'0 0.9
2018-Jun-15 02:30N 47°35' W 122°21'0 0.3
2018-Jun-15 02:00N 47°35' W 122°21'0 0.1
2018-Jun-15 01:30N 47°35' W 122°21'0 0.6
2018-Jun-15 01:00N 47°35' W 122°21'  
Track history (hours):
 
Tides and Currents Weather Stations Pressure Air Temp Water Temp Dewpoint Dewpoint Depression Visibility Wind Speed Wind Dir Waves Ship Positions

Millennium Dawn

Owner: Harley Marine Services, Inc, Seattle, WA. More information available from US FCC via Universal Licensing System and Coast Guard Vessel Documentation Center.

Last reported at 2018-Jun-25 00:30 UTC. Time now 2018-Jun-25 00:43 UTC.
Position N 48°31' W 122°36'.

Length 30 m; draft 5.2 m.

Type: Tug. MMSI: 366844270.

Date/timePositionNaut miles runAvg speedWind from/ knotsBaromVisibWave heightAir tempDewpointWater temp
2018-Jun-25 00:30N 48°31' W 122°36'0 0.0
2018-Jun-25 00:00N 48°31' W 122°36'0 0.0
2018-Jun-24 23:30N 48°31' W 122°36'0 0.0
2018-Jun-24 23:00N 48°31' W 122°36'0 0.0
2018-Jun-24 22:30N 48°31' W 122°36'0 0.0
2018-Jun-24 22:00N 48°31' W 122°36'0 0.0
2018-Jun-24 21:30N 48°31' W 122°36'0 0.2
2018-Jun-24 21:00N 48°31' W 122°36'3 5.9
2018-Jun-24 20:30N 48°34' W 122°36'0 0.0
2018-Jun-24 20:00N 48°34' W 122°36'0 0.0
2018-Jun-24 19:30N 48°34' W 122°36'1 1.3
2018-Jun-24 19:00N 48°35' W 122°36'1 1.2
2018-Jun-24 18:30N 48°36' W 122°36'1 1.0
2018-Jun-24 18:00N 48°36' W 122°37'3 5.2
2018-Jun-24 17:30N 48°38' W 122°39'5 9.8
2018-Jun-24 17:00N 48°42' W 122°43'3 1.0
2018-Jun-24 14:09N 48°45' W 122°45'2 9.7
2018-Jun-24 13:57N 48°43' W 122°44'4 9.4
2018-Jun-24 13:30N 48°40' W 122°40'4 8.0
2018-Jun-24 13:00N 48°37' W 122°35'1 2.0
2018-Jun-24 12:31N 48°37' W 122°34'4 8.3
2018-Jun-24 12:00N 48°33' W 122°34'1 2.4
2018-Jun-24 11:30N 48°32' W 122°35'2 3.5
2018-Jun-24 10:59N 48°33' W 122°35'2 4.9
2018-Jun-24 10:30N 48°31' W 122°36'0 0.0
2018-Jun-24 10:00N 48°31' W 122°36'0 0.1
2018-Jun-24 09:30N 48°31' W 122°37'0 0.1
2018-Jun-24 09:00N 48°31' W 122°36'0 0.1
2018-Jun-24 08:30N 48°31' W 122°37'0 0.0
2018-Jun-24 08:00N 48°31' W 122°37'0 0.0
2018-Jun-24 07:30N 48°31' W 122°37'0 0.0
2018-Jun-24 07:00N 48°31' W 122°37'0 0.0
2018-Jun-24 06:30N 48°31' W 122°37'0 0.1
2018-Jun-24 05:58N 48°31' W 122°36'0 0.0
2018-Jun-24 05:30N 48°31' W 122°36'0 0.1
2018-Jun-24 05:00N 48°31' W 122°37'0 0.1
2018-Jun-24 04:30N 48°31' W 122°36'0 0.1
2018-Jun-24 04:00N 48°31' W 122°37'0 0.0
2018-Jun-24 03:30N 48°31' W 122°37'0 0.0
2018-Jun-24 03:00N 48°31' W 122°37'0 0.0
2018-Jun-24 02:30N 48°31' W 122°37'0 0.1
2018-Jun-24 02:00N 48°31' W 122°36'0 0.0
2018-Jun-24 01:30N 48°31' W 122°36'0 0.1
2018-Jun-24 01:00N 48°31' W 122°37'0 0.0
2018-Jun-24 00:30N 48°31' W 122°37'0 0.1
2018-Jun-24 00:00N 48°31' W 122°36'0 0.0
2018-Jun-23 23:29N 48°31' W 122°36'0 0.1
2018-Jun-23 23:00N 48°31' W 122°37'0 0.0
2018-Jun-23 22:30N 48°31' W 122°37'0 0.0
2018-Jun-23 22:00N 48°31' W 122°37'0 0.1
2018-Jun-23 21:30N 48°31' W 122°36'0 0.0
2018-Jun-23 21:00N 48°31' W 122°36'0 0.0
2018-Jun-23 20:30N 48°31' W 122°36'0 0.0
2018-Jun-23 19:58N 48°31' W 122°36'0 0.1
2018-Jun-23 19:30N 48°31' W 122°37'0 0.1
2018-Jun-23 19:00N 48°31' W 122°36'0 0.1
2018-Jun-23 18:30N 48°31' W 122°37'0 0.1
2018-Jun-23 18:00N 48°31' W 122°36'0 0.0
2018-Jun-23 17:30N 48°31' W 122°36'0 0.0
2018-Jun-23 17:00N 48°31' W 122°36'0 0.1
2018-Jun-23 16:30N 48°31' W 122°37'0 0.1
2018-Jun-23 16:00N 48°31' W 122°36'0 0.0
2018-Jun-23 15:30N 48°31' W 122°36'0 0.0
2018-Jun-23 15:00N 48°31' W 122°36'0 0.0
2018-Jun-23 14:30N 48°31' W 122°36'0 0.1
2018-Jun-23 13:57N 48°31' W 122°37'0 0.0
2018-Jun-23 13:30N 48°31' W 122°37'0 0.0
2018-Jun-23 13:00N 48°31' W 122°37'0 0.1
2018-Jun-23 12:30N 48°31' W 122°36'0 0.1
2018-Jun-23 12:00N 48°31' W 122°37'0 0.0
2018-Jun-23 11:30N 48°31' W 122°37'0 0.0
2018-Jun-23 11:00N 48°31' W 122°37'0 0.0
2018-Jun-23 10:28N 48°31' W 122°37'0 0.1
2018-Jun-23 10:00N 48°31' W 122°36'0 0.1
2018-Jun-23 09:29N 48°31' W 122°37'0 0.1
2018-Jun-23 09:00N 48°31' W 122°36'0 0.0
2018-Jun-23 08:30N 48°31' W 122°36'0 0.0
2018-Jun-23 08:00N 48°31' W 122°36'0 0.0
2018-Jun-23 07:30N 48°31' W 122°36'0 0.0
2018-Jun-23 06:59N 48°31' W 122°36'0 0.0
2018-Jun-23 06:30N 48°31' W 122°36'0 0.1
2018-Jun-23 06:00N 48°31' W 122°37'0 0.0
2018-Jun-23 05:30N 48°31' W 122°37'0 0.1
2018-Jun-23 05:00N 48°31' W 122°36'0 0.0
2018-Jun-23 04:30N 48°31' W 122°36'0 0.0
2018-Jun-23 03:59N 48°31' W 122°36'0 0.0
2018-Jun-23 03:30N 48°31' W 122°36'0 0.0
2018-Jun-23 03:00N 48°31' W 122°36'0 0.0
2018-Jun-23 02:30N 48°31' W 122°36'0 0.0
2018-Jun-23 02:00N 48°31' W 122°36'0 0.0
2018-Jun-23 01:30N 48°31' W 122°36'0 0.1
2018-Jun-23 01:00N 48°31' W 122°37'0 0.0
2018-Jun-23 00:30N 48°31' W 122°37'0 0.1
2018-Jun-23 00:00N 48°31' W 122°36'0 0.1
2018-Jun-22 23:30N 48°31' W 122°37'0 0.1
2018-Jun-22 23:00N 48°31' W 122°36'0 0.5
2018-Jun-22 22:31N 48°31' W 122°37'4 7.0
2018-Jun-22 22:00N 48°35' W 122°35'3 5.2
2018-Jun-22 21:30N 48°37' W 122°34'1 1.4
2018-Jun-22 20:58N 48°37' W 122°35'2 5.2
2018-Jun-22 20:30N 48°38' W 122°39'3 6.3
2018-Jun-22 20:01N 48°39' W 122°43'510.3
2018-Jun-22 19:30N 48°34' W 122°45'610.8
2018-Jun-22 18:57N 48°28' W 122°45'6 9.2
2018-Jun-22 18:19N 48°23' W 122°49'25 3.8
2018-Jun-22 11:35N 47°60' W 122°36'413.6
2018-Jun-22 11:18N 47°57' W 122°32'412.3
2018-Jun-22 11:00N 47°54' W 122°28'612.3
2018-Jun-22 10:30N 47°48' W 122°26'611.9
2018-Jun-22 10:00N 47°42' W 122°26'510.7
2018-Jun-22 09:30N 47°37' W 122°24'4 7.2
2018-Jun-22 09:00N 47°34' W 122°21'0 0.0
2018-Jun-22 08:30N 47°34' W 122°21'0 0.0
2018-Jun-22 08:00N 47°34' W 122°21'0 0.0
2018-Jun-22 07:30N 47°34' W 122°21'0 0.0
2018-Jun-22 07:00N 47°34' W 122°21'0 0.0
2018-Jun-22 06:30N 47°34' W 122°21'0 0.0
2018-Jun-22 06:00N 47°34' W 122°21'0 0.0
2018-Jun-22 05:30N 47°34' W 122°21'0 0.0
2018-Jun-22 05:00N 47°34' W 122°21'0 0.0
2018-Jun-22 04:30N 47°34' W 122°21'0 0.0
2018-Jun-22 04:00N 47°34' W 122°21'1 1.1
2018-Jun-22 03:30N 47°35' W 122°21'4 7.7
2018-Jun-22 03:00N 47°34' W 122°26'611.0
2018-Jun-22 02:30N 47°29' W 122°24'611.4
2018-Jun-22 02:00N 47°24' W 122°21'510.9
2018-Jun-22 01:31N 47°20' W 122°26'3 6.2
2018-Jun-22 01:00N 47°17' W 122°25'1 2.9
2018-Jun-22 00:30N 47°16' W 122°23'1 2.4
2018-Jun-22 00:00N 47°16' W 122°24'0 0.8
2018-Jun-21 23:30N 47°16' W 122°24'1 1.2
2018-Jun-21 22:59N 47°16' W 122°23'0 0.7
2018-Jun-21 22:27N 47°16' W 122°24'0 0.5
2018-Jun-21 22:00N 47°16' W 122°23'4 7.1
2018-Jun-21 21:30N 47°18' W 122°27'5 9.7
2018-Jun-21 21:00N 47°22' W 122°23'5 9.6
2018-Jun-21 20:30N 47°27' W 122°25'611.3
2018-Jun-21 20:00N 47°32' W 122°27'5 9.4
2018-Jun-21 19:30N 47°36' W 122°22'2 3.6
2018-Jun-21 19:00N 47°34' W 122°21'0 0.0
2018-Jun-21 18:30N 47°34' W 122°21'0 0.0
2018-Jun-21 18:00N 47°34' W 122°21'0 0.0
2018-Jun-21 17:30N 47°34' W 122°21'1 2.0
2018-Jun-21 17:00N 47°35' W 122°21'1 1.1
2018-Jun-21 16:30N 47°36' W 122°21'0 1.0
2018-Jun-21 16:00N 47°35' W 122°21'1 2.2
2018-Jun-21 15:30N 47°34' W 122°21'0 0.0
2018-Jun-21 15:00N 47°34' W 122°21'0 0.0
2018-Jun-21 14:30N 47°34' W 122°21'0 0.0
2018-Jun-21 14:00N 47°34' W 122°21'0 0.0
2018-Jun-21 13:30N 47°34' W 122°21'0 1.0
2018-Jun-21 13:00N 47°35' W 122°21'0 0.5
2018-Jun-21 12:30N 47°35' W 122°21'1 2.9
2018-Jun-21 12:00N 47°37' W 122°21'0 0.9
2018-Jun-21 11:30N 47°37' W 122°22'0 0.4
2018-Jun-21 11:00N 47°37' W 122°21'2 4.7
2018-Jun-21 10:30N 47°34' W 122°21'0 0.0
2018-Jun-21 10:00N 47°34' W 122°21'0 0.0
2018-Jun-21 09:30N 47°34' W 122°21'0 0.0
2018-Jun-21 09:00N 47°34' W 122°21'0 0.0
2018-Jun-21 08:30N 47°34' W 122°21'0 0.0
2018-Jun-21 08:00N 47°34' W 122°21'0 0.0
2018-Jun-21 07:30N 47°34' W 122°21'0 0.0
2018-Jun-21 07:00N 47°34' W 122°21'0 0.0
2018-Jun-21 06:30N 47°34' W 122°21'0 0.0
2018-Jun-21 06:00N 47°34' W 122°21'0 0.0
2018-Jun-21 05:30N 47°34' W 122°21'0 0.0
2018-Jun-21 05:00N 47°34' W 122°21'0 0.0
2018-Jun-21 04:30N 47°34' W 122°21'0 0.6
2018-Jun-21 04:01N 47°35' W 122°21'0 0.1
2018-Jun-21 03:30N 47°35' W 122°21'1 2.1
2018-Jun-21 03:00N 47°36' W 122°21'1 1.6
2018-Jun-21 02:30N 47°36' W 122°21'2 3.6
2018-Jun-21 02:00N 47°35' W 122°21'0 0.7
2018-Jun-21 01:30N 47°34' W 122°21'0 0.0
2018-Jun-21 01:00N 47°34' W 122°21'0 0.0
2018-Jun-21 00:30N 47°34' W 122°21'0 0.0
2018-Jun-21 00:00N 47°34' W 122°21'0 0.0
2018-Jun-20 23:30N 47°34' W 122°21'0 0.0
2018-Jun-20 22:59N 47°34' W 122°21'0 0.0
2018-Jun-20 22:30N 47°34' W 122°21'0 0.0
2018-Jun-20 22:00N 47°34' W 122°21'0 0.0
2018-Jun-20 21:30N 47°34' W 122°21'0 0.0
2018-Jun-20 21:00N 47°34' W 122°21'0 0.0
2018-Jun-20 20:30N 47°34' W 122°21'0 0.0
2018-Jun-20 20:00N 47°34' W 122°21'0 0.0
2018-Jun-20 19:30N 47°34' W 122°21'0 0.0
2018-Jun-20 19:00N 47°34' W 122°21'0 0.0
2018-Jun-20 18:30N 47°34' W 122°21'0 0.0
2018-Jun-20 17:58N 47°34' W 122°21'0 0.0
2018-Jun-20 17:30N 47°34' W 122°21'0 0.0
2018-Jun-20 17:00N 47°34' W 122°21'0 0.0
2018-Jun-20 16:30N 47°34' W 122°21'0 0.0
2018-Jun-20 16:00N 47°34' W 122°21'3 6.4
2018-Jun-20 15:30N 47°35' W 122°25'510.3
2018-Jun-20 15:00N 47°30' W 122°24'611.3
2018-Jun-20 14:30N 47°24' W 122°22'5 9.7
2018-Jun-20 14:00N 47°20' W 122°25'4 8.0
2018-Jun-20 13:30N 47°16' W 122°24'0 0.0
2018-Jun-20 12:58N 47°16' W 122°24'2 5.1
2018-Jun-20 12:31N 47°18' W 122°27'2 3.5
2018-Jun-20 12:00N 47°17' W 122°24'0 0.9
2018-Jun-20 11:30N 47°16' W 122°24'0 0.0
2018-Jun-20 10:59N 47°16' W 122°24'0 0.0
2018-Jun-20 10:26N 47°16' W 122°24'0 0.0
2018-Jun-20 10:00N 47°16' W 122°24'0 0.0
2018-Jun-20 09:30N 47°16' W 122°24'0 0.0
2018-Jun-20 09:00N 47°16' W 122°24'0 0.0
2018-Jun-20 08:30N 47°16' W 122°24'0 0.0
2018-Jun-20 07:59N 47°16' W 122°24'0 0.0
2018-Jun-20 06:14N 47°16' W 122°24'0 0.0
2018-Jun-20 04:20N 47°16' W 122°24'0 0.0
2018-Jun-20 03:56N 47°16' W 122°24'0 0.0
2018-Jun-20 03:30N 47°16' W 122°24'0 0.0
2018-Jun-20 03:00N 47°16' W 122°24'0 0.0
2018-Jun-20 02:30N 47°16' W 122°24'0 0.3
2018-Jun-20 02:00N 47°16' W 122°24'4 8.7
2018-Jun-20 01:30N 47°20' W 122°27'5 9.7
2018-Jun-20 01:00N 47°24' W 122°23'611.6
2018-Jun-20 00:30N 47°30' W 122°26'510.3
2018-Jun-20 00:00N 47°35' W 122°25'3 6.4
2018-Jun-19 23:30N 47°34' W 122°21'0 0.0
2018-Jun-19 23:00N 47°34' W 122°21'0 0.0
2018-Jun-19 22:30N 47°34' W 122°21'0 0.0
2018-Jun-19 22:00N 47°34' W 122°21'0 0.0
2018-Jun-19 21:30N 47°34' W 122°21'0 0.0
2018-Jun-19 21:00N 47°34' W 122°21'0 0.0
2018-Jun-19 20:30N 47°34' W 122°21'0 0.0
2018-Jun-19 20:00N 47°34' W 122°21'1 1.8
2018-Jun-19 19:30N 47°35' W 122°21'0 0.0
2018-Jun-19 19:00N 47°35' W 122°21'0 0.0
2018-Jun-19 18:30N 47°35' W 122°21'0 0.0
2018-Jun-19 18:00N 47°35' W 122°21'0 0.0
2018-Jun-19 17:30N 47°35' W 122°21'1 1.8
2018-Jun-19 17:00N 47°34' W 122°21'0 0.0
2018-Jun-19 16:30N 47°34' W 122°21'0 0.0
2018-Jun-19 16:00N 47°34' W 122°21'0 0.0
2018-Jun-19 15:30N 47°34' W 122°21'0 0.0
2018-Jun-19 15:00N 47°34' W 122°21'0 0.0
2018-Jun-19 14:30N 47°34' W 122°21'0 0.0
2018-Jun-19 14:00N 47°34' W 122°21'0 0.0
2018-Jun-19 13:30N 47°34' W 122°21'0 0.0
2018-Jun-19 13:00N 47°34' W 122°21'0 0.0
2018-Jun-19 12:30N 47°34' W 122°21'0 0.0
2018-Jun-19 12:00N 47°34' W 122°21'0 0.0
2018-Jun-19 11:30N 47°34' W 122°21'0 0.0
2018-Jun-19 11:00N 47°34' W 122°21'0 0.0
2018-Jun-19 10:30N 47°34' W 122°21'0 0.0
2018-Jun-19 10:00N 47°34' W 122°21'0 0.0
2018-Jun-19 09:30N 47°34' W 122°21'0 0.0
2018-Jun-19 09:00N 47°34' W 122°21'0 0.0
2018-Jun-19 08:30N 47°34' W 122°21'0 0.0
2018-Jun-19 08:00N 47°34' W 122°21'0 0.3
2018-Jun-19 07:31N 47°35' W 122°21'0 0.2
2018-Jun-19 07:00N 47°34' W 122°21'0 0.1
2018-Jun-19 06:30N 47°34' W 122°21'0 0.0
2018-Jun-19 06:00N 47°34' W 122°21'0 0.0
2018-Jun-19 05:30N 47°34' W 122°21'0 0.0
2018-Jun-19 05:00N 47°34' W 122°21'0 0.0
2018-Jun-19 04:30N 47°34' W 122°21'0 0.0
2018-Jun-19 04:00N 47°34' W 122°21'0 0.0
2018-Jun-19 03:30N 47°34' W 122°21'0 0.0
2018-Jun-19 03:00N 47°34' W 122°21'0 0.0
2018-Jun-19 02:30N 47°34' W 122°21'0 0.0
2018-Jun-19 02:00N 47°34' W 122°21'0 0.0
2018-Jun-19 01:30N 47°34' W 122°21'0 0.0
2018-Jun-19 01:00N 47°34' W 122°21'0 0.0
2018-Jun-19 00:30N 47°34' W 122°21'0 0.0
2018-Jun-19 00:00N 47°34' W 122°21'0 0.0
2018-Jun-18 23:29N 47°34' W 122°21'1 1.3
2018-Jun-18 23:00N 47°35' W 122°21'4 7.3
2018-Jun-18 22:30N 47°34' W 122°26'611.6
2018-Jun-18 22:00N 47°29' W 122°24'611.8
2018-Jun-18 21:30N 47°23' W 122°21'611.8
2018-Jun-18 21:00N 47°19' W 122°27'3 3.5
2018-Jun-18 20:03N 47°16' W 122°24'0 0.1
2018-Jun-18 19:58N 47°16' W 122°24'0 0.0
2018-Jun-18 19:27N 47°16' W 122°24'0 0.0
2018-Jun-18 19:00N 47°16' W 122°24'0 0.0
2018-Jun-18 18:17N 47°16' W 122°24'0 0.0
2018-Jun-18 17:50N 47°16' W 122°24'0 0.0
2018-Jun-18 17:28N 47°16' W 122°24'0 0.0
2018-Jun-18 17:00N 47°16' W 122°24'0 0.0
2018-Jun-18 16:28N 47°16' W 122°24'0 0.0
2018-Jun-18 16:00N 47°16' W 122°24'0 0.0
2018-Jun-18 15:29N 47°16' W 122°24'0 0.0
2018-Jun-18 15:00N 47°16' W 122°24'0 0.0
2018-Jun-18 14:24N 47°16' W 122°24'0 0.0
2018-Jun-18 14:00N 47°16' W 122°24'0 0.0
2018-Jun-18 13:29N 47°16' W 122°24'0 0.0
2018-Jun-18 13:00N 47°16' W 122°24'0 0.0
2018-Jun-18 12:30N 47°16' W 122°24'0 0.0
2018-Jun-18 11:56N 47°16' W 122°24'0 0.0
2018-Jun-18 11:25N 47°16' W 122°24'0 0.0
2018-Jun-18 11:00N 47°16' W 122°24'0 0.0
2018-Jun-18 10:30N 47°16' W 122°24'0 0.0
2018-Jun-18 10:00N 47°16' W 122°24'0 0.0
2018-Jun-18 09:30N 47°16' W 122°24'0 0.0
2018-Jun-18 08:53N 47°16' W 122°24'0 0.0
2018-Jun-18 08:30N 47°16' W 122°24'0 0.0
2018-Jun-18 08:00N 47°16' W 122°24'0 0.0
2018-Jun-18 07:28N 47°16' W 122°24'0 0.0
2018-Jun-18 06:58N 47°16' W 122°24'0 0.0
2018-Jun-18 06:30N 47°16' W 122°24'0 0.0
2018-Jun-18 06:00N 47°16' W 122°24'0 0.0
2018-Jun-18 05:30N 47°16' W 122°24'0 0.0
2018-Jun-18 05:00N 47°16' W 122°24'0 0.0
2018-Jun-18 04:28N 47°16' W 122°24'0 0.0
2018-Jun-18 04:00N 47°16' W 122°24'0 0.0
2018-Jun-18 03:28N 47°16' W 122°24'0 0.0
2018-Jun-18 02:53N 47°16' W 122°24'0 1.2
2018-Jun-18 02:30N 47°16' W 122°24'1 1.1
2018-Jun-18 02:00N 47°16' W 122°24'1 1.2
2018-Jun-18 01:30N 47°16' W 122°23'1 2.6
2018-Jun-18 01:00N 47°17' W 122°25'1 2.6
2018-Jun-18 00:30N 47°16' W 122°23'0 0.2
2018-Jun-17 23:15N 47°16' W 122°23'0 0.0
2018-Jun-17 22:59N 47°16' W 122°23'2 3.3
2018-Jun-17 22:29N 47°17' W 122°25'4 8.6
2018-Jun-17 22:00N 47°21' W 122°26'5 9.4
2018-Jun-17 21:30N 47°25' W 122°24'611.7
2018-Jun-17 21:00N 47°31' W 122°26'510.1
2018-Jun-17 20:30N 47°36' W 122°24'3 5.1
2018-Jun-17 19:59N 47°34' W 122°21'0 0.0
2018-Jun-17 19:30N 47°34' W 122°21'0 0.0
2018-Jun-17 18:59N 47°34' W 122°21'0 0.0
2018-Jun-17 18:30N 47°34' W 122°21'0 0.0
2018-Jun-17 18:00N 47°34' W 122°21'0 0.0
2018-Jun-17 17:30N 47°34' W 122°21'0 0.0
2018-Jun-17 17:00N 47°34' W 122°21'0 0.0
2018-Jun-17 16:30N 47°34' W 122°21'0 0.0
2018-Jun-17 16:00N 47°34' W 122°21'0 0.0
2018-Jun-17 15:30N 47°34' W 122°21'0 0.0
2018-Jun-17 15:00N 47°34' W 122°21'0 0.0
2018-Jun-17 14:30N 47°34' W 122°21'0 0.0
2018-Jun-17 14:00N 47°34' W 122°21'0 0.0
2018-Jun-17 13:30N 47°34' W 122°21'1 1.6
2018-Jun-17 13:00N 47°35' W 122°21'0 0.6
2018-Jun-17 12:31N 47°35' W 122°21'0 0.1
2018-Jun-17 12:00N 47°35' W 122°21'0 0.8
2018-Jun-17 11:30N 47°34' W 122°21'0 0.0
2018-Jun-17 11:00N 47°34' W 122°21'0 0.0
2018-Jun-17 10:30N 47°34' W 122°21'0 0.1
2018-Jun-17 10:00N 47°34' W 122°21'0 0.1
2018-Jun-17 09:30N 47°34' W 122°21'0 0.0
2018-Jun-17 09:00N 47°34' W 122°21'0 0.0
2018-Jun-17 08:30N 47°34' W 122°21'0 0.0
2018-Jun-17 08:00N 47°34' W 122°21'0 0.0
2018-Jun-17 07:30N 47°34' W 122°21'0 0.0
2018-Jun-17 07:00N 47°34' W 122°21'0 0.0
2018-Jun-17 06:30N 47°34' W 122°21'0 0.0
2018-Jun-17 06:00N 47°34' W 122°21'0 0.0
2018-Jun-17 05:30N 47°34' W 122°21'0 0.0
2018-Jun-17 05:00N 47°34' W 122°21'0 0.0
2018-Jun-17 04:29N 47°34' W 122°21'0 0.0
2018-Jun-17 04:00N 47°34' W 122°21'0 0.0
2018-Jun-17 03:30N 47°34' W 122°21'0 0.0
2018-Jun-17 03:00N 47°34' W 122°21'0 0.0
2018-Jun-17 02:30N 47°34' W 122°21'0 0.0
2018-Jun-17 02:00N 47°34' W 122°21'0 0.0
2018-Jun-17 01:30N 47°34' W 122°21'0 0.0
2018-Jun-17 01:00N 47°34' W 122°21'0 0.0
2018-Jun-17 00:30N 47°34' W 122°21'0 0.0
2018-Jun-17 00:00N 47°34' W 122°21'0 0.0
2018-Jun-16 23:30N 47°34' W 122°21'0 0.0
2018-Jun-16 23:00N 47°34' W 122°21'0 0.0
2018-Jun-16 22:30N 47°34' W 122°21'0 0.0
2018-Jun-16 22:00N 47°34' W 122°21'0 0.0
2018-Jun-16 21:30N 47°34' W 122°21'0 0.0
2018-Jun-16 21:00N 47°34' W 122°21'2 3.1
2018-Jun-16 20:30N 47°36' W 122°22'4 8.7
2018-Jun-16 20:00N 47°32' W 122°25'611.7
2018-Jun-16 19:30N 47°26' W 122°23'510.0
2018-Jun-16 19:00N 47°21' W 122°23'5 9.3
2018-Jun-16 18:30N 47°17' W 122°25'1 2.4
2018-Jun-16 18:00N 47°16' W 122°24'0 0.0
2018-Jun-16 17:29N 47°16' W 122°24'0 0.0
2018-Jun-16 17:00N 47°16' W 122°24'0 0.0
2018-Jun-16 16:28N 47°16' W 122°24'0 0.0
2018-Jun-16 14:34N 47°16' W 122°24'0 0.0
2018-Jun-16 14:29N 47°16' W 122°24'0 0.0
2018-Jun-16 13:58N 47°16' W 122°24'0 0.0
2018-Jun-16 13:30N 47°16' W 122°24'1 1.4
2018-Jun-16 13:00N 47°16' W 122°23'1 1.4
2018-Jun-16 12:27N 47°16' W 122°24'1 3.0
2018-Jun-16 12:00N 47°17' W 122°26'1 2.1
2018-Jun-16 11:30N 47°18' W 122°27'2 4.1
2018-Jun-16 11:00N 47°16' W 122°24'0 0.7
2018-Jun-16 10:27N 47°16' W 122°24'0 0.0
2018-Jun-16 10:00N 47°16' W 122°24'0 0.0
2018-Jun-16 09:29N 47°16' W 122°24'0 0.0
2018-Jun-16 08:59N 47°16' W 122°24'0 0.0
2018-Jun-16 08:30N 47°16' W 122°24'0 0.0
2018-Jun-16 07:54N 47°16' W 122°24'0 0.0
2018-Jun-16 07:29N 47°16' W 122°24'0 0.0
2018-Jun-16 03:49N 47°16' W 122°24'0 0.0
2018-Jun-16 03:30N 47°16' W 122°24'0 0.0
2018-Jun-16 02:45N 47°16' W 122°24'0 0.0
2018-Jun-16 02:29N 47°16' W 122°24'0 0.0
2018-Jun-16 01:49N 47°16' W 122°24'2 6.0
2018-Jun-16 01:30N 47°17' W 122°26'5 9.2
2018-Jun-16 01:00N 47°22' W 122°24'5 9.6
2018-Jun-16 00:30N 47°26' W 122°24'612.2
2018-Jun-16 00:00N 47°32' W 122°27'5 9.9
2018-Jun-15 23:30N 47°36' W 122°22'2 3.1
2018-Jun-15 23:00N 47°34' W 122°21'0 0.0
2018-Jun-15 22:30N 47°34' W 122°21'0 0.0
2018-Jun-15 22:00N 47°34' W 122°21'0 0.0
2018-Jun-15 21:30N 47°34' W 122°21'0 0.0
2018-Jun-15 21:00N 47°34' W 122°21'0 0.0
2018-Jun-15 20:30N 47°34' W 122°21'0 0.0
2018-Jun-15 20:00N 47°34' W 122°21'0 0.0
2018-Jun-15 19:30N 47°34' W 122°21'0 0.0
2018-Jun-15 19:00N 47°34' W 122°21'0 0.0
2018-Jun-15 18:30N 47°34' W 122°21'0 0.0
2018-Jun-15 18:00N 47°34' W 122°21'0 0.0
2018-Jun-15 17:30N 47°34' W 122°21'0 0.0
2018-Jun-15 17:00N 47°34' W 122°21'0 0.0
2018-Jun-15 16:30N 47°34' W 122°21'0 0.0
2018-Jun-15 16:00N 47°34' W 122°21'0 0.0
2018-Jun-15 15:30N 47°34' W 122°21'1 1.0
2018-Jun-15 15:00N 47°35' W 122°21'3 6.4
2018-Jun-15 14:30N 47°38' W 122°23'0 0.2
2018-Jun-15 13:59N 47°38' W 122°23'2 5.2
2018-Jun-15 13:30N 47°36' W 122°21'1 2.5
2018-Jun-15 13:00N 47°34' W 122°21'0 0.0
2018-Jun-15 12:30N 47°34' W 122°21'0 0.0
2018-Jun-15 12:00N 47°34' W 122°21'0 0.0
2018-Jun-15 11:30N 47°34' W 122°21'0 0.0
2018-Jun-15 10:59N 47°34' W 122°21'0 0.2
2018-Jun-15 10:30N 47°34' W 122°21'0 0.9
2018-Jun-15 10:00N 47°35' W 122°21'1 2.9
2018-Jun-15 09:31N 47°36' W 122°21'2 3.9
2018-Jun-15 09:00N 47°34' W 122°21'0 0.0
2018-Jun-15 08:30N 47°34' W 122°21'0 0.0
2018-Jun-15 08:00N 47°34' W 122°21'0 0.0
2018-Jun-15 07:30N 47°34' W 122°21'0 0.0
2018-Jun-15 07:00N 47°34' W 122°21'0 0.0
2018-Jun-15 06:30N 47°34' W 122°21'0 0.0
2018-Jun-15 06:00N 47°34' W 122°21'0 0.0
2018-Jun-15 05:30N 47°34' W 122°21'0 0.0
2018-Jun-15 05:00N 47°34' W 122°21'0 0.0
2018-Jun-15 04:30N 47°34' W 122°21'1 1.1
2018-Jun-15 04:00N 47°35' W 122°21'0 0.4
2018-Jun-15 03:30N 47°35' W 122°21'0 0.1
2018-Jun-15 03:00N 47°35' W 122°21'0 0.9
2018-Jun-15 02:30N 47°35' W 122°21'0 0.3
2018-Jun-15 02:00N 47°35' W 122°21'0 0.1
2018-Jun-15 01:30N 47°35' W 122°21'0 0.6
2018-Jun-15 01:00N 47°35' W 122°21'  

Dump ship's entire track history